createdAt,value
2023-01-23T00:04:34.436Z,15.53
2023-01-23T00:09:36.553Z,16.20
2023-01-23T00:14:40.006Z,13.47
2023-01-23T00:19:41.996Z,16.97
2023-01-23T00:24:44.062Z,14.90
2023-01-23T00:29:47.562Z,19.60
2023-01-23T00:34:49.708Z,16.17
2023-01-23T00:39:51.665Z,18.87
2023-01-23T00:44:55.107Z,18.37
2023-01-23T00:49:57.258Z,16.07
2023-01-23T00:54:59.374Z,17.63
2023-01-23T01:00:03.741Z,15.80
2023-01-23T01:05:06.842Z,16.40
2023-01-23T01:10:12.707Z,14.17
2023-01-23T01:15:16.507Z,15.53
2023-01-23T01:20:18.933Z,16.63
2023-01-23T01:25:21.998Z,18.90
2023-01-23T01:30:25.786Z,18.23
2023-01-23T01:35:27.521Z,15.87
2023-01-23T01:40:34.030Z,17.70
2023-01-23T01:46:10.821Z,17.60
2023-01-23T01:51:19.624Z,17.13
2023-01-23T01:56:22.167Z,20.93
2023-01-23T02:01:26.792Z,18.00
2023-01-23T02:06:29.356Z,20.67
2023-01-23T02:11:31.542Z,19.67
2023-01-23T02:16:37.222Z,16.83
2023-01-23T02:21:41.594Z,18.73
2023-01-23T02:26:46.860Z,17.07
2023-01-23T02:31:49.017Z,20.17
2023-01-23T02:36:51.248Z,17.20
2023-01-23T02:41:56.549Z,18.83
2023-01-23T02:47:01.232Z,22.73
2023-01-23T02:52:03.444Z,21.33
2023-01-23T02:57:07.006Z,21.37
2023-01-23T03:02:09.528Z,21.37
2023-01-23T03:07:11.471Z,20.40
2023-01-23T03:12:14.910Z,18.10
2023-01-23T03:17:17.011Z,20.77
2023-01-23T03:22:19.092Z,22.30
2023-01-23T03:27:22.227Z,18.27
2023-01-23T03:32:24.132Z,18.17
2023-01-23T03:37:26.113Z,20.53
2023-01-23T03:42:29.740Z,21.40
2023-01-23T03:47:31.698Z,22.80
2023-01-23T03:52:33.680Z,21.03
2023-01-23T03:57:39.347Z,22.00
2023-01-23T04:02:41.232Z,23.83
2023-01-23T04:07:43.659Z,18.87
2023-01-23T04:12:47.097Z,23.33
2023-01-23T04:17:49.222Z,22.30
2023-01-23T04:22:51.417Z,25.00
2023-01-23T04:27:54.675Z,18.27
2023-01-23T04:32:56.743Z,22.07
2023-01-23T04:37:58.902Z,23.37
2023-01-23T04:43:02.721Z,25.73
2023-01-23T04:48:05.474Z,25.07
2023-01-23T04:53:07.757Z,26.83
2023-01-23T04:58:11.168Z,24.77
2023-01-23T05:03:13.789Z,23.67
2023-01-23T05:08:16.144Z,22.77
2023-01-23T05:13:19.743Z,25.30
2023-01-23T05:18:21.779Z,24.77
2023-01-23T05:23:23.990Z,20.47
2023-01-23T05:28:27.627Z,20.07
2023-01-23T05:33:29.485Z,28.57
2023-01-23T05:38:31.429Z,28.60
2023-01-23T05:43:34.853Z,21.17
2023-01-23T05:48:36.964Z,23.63
2023-01-23T05:53:39.022Z,28.93
2023-01-23T05:58:42.651Z,23.03
2023-01-23T06:03:45.150Z,23.53
2023-01-23T06:08:47.558Z,22.33
2023-01-23T06:13:51.081Z,25.87
2023-01-23T06:18:53.304Z,24.27
2023-01-23T06:23:55.152Z,23.40
2023-01-23T06:28:58.835Z,20.87
2023-01-23T06:34:00.919Z,26.63
2023-01-23T06:39:03.119Z,22.60
2023-01-23T06:44:06.546Z,27.60
2023-01-23T06:49:08.508Z,24.47
2023-01-23T06:54:10.780Z,19.80
2023-01-23T06:59:14.403Z,19.80
2023-01-23T07:04:16.619Z,22.80
2023-01-23T07:09:19.102Z,23.03
2023-01-23T07:14:22.967Z,28.67
2023-01-23T07:19:25.086Z,22.40
2023-01-23T07:24:26.888Z,20.00
2023-01-23T07:29:30.326Z,23.00
2023-01-23T07:34:32.668Z,22.17
2023-01-23T07:39:34.780Z,23.47
2023-01-23T07:44:38.236Z,23.90
2023-01-23T07:49:40.517Z,29.70
2023-01-23T07:54:42.241Z,21.03
2023-01-23T07:59:47.341Z,24.17
2023-01-23T08:04:49.506Z,26.03
2023-01-23T08:09:51.526Z,23.13
2023-01-23T08:14:54.884Z,21.57
2023-01-23T08:19:56.985Z,22.50
2023-01-23T08:24:59.083Z,21.87
2023-01-23T08:30:02.701Z,24.73
2023-01-23T08:35:05.637Z,25.07
2023-01-23T08:40:09.093Z,22.80
2023-01-23T08:45:12.638Z,20.53
2023-01-23T08:50:15.121Z,19.23
2023-01-23T08:55:17.476Z,23.50
2023-01-23T09:00:23.038Z,18.70
2023-01-23T09:05:25.127Z,21.90
2023-01-23T09:10:27.508Z,23.83
2023-01-23T09:15:31.468Z,20.20
2023-01-23T09:20:33.972Z,22.43
2023-01-23T09:25:37.736Z,24.93
2023-01-23T09:30:41.566Z,22.93
2023-01-23T09:35:43.683Z,20.93
2023-01-23T09:40:49.944Z,24.97
2023-01-23T09:46:03.197Z,26.20
2023-01-23T09:51:12.991Z,22.70
2023-01-23T09:56:28.533Z,22.47
2023-01-23T10:01:31.931Z,24.30
2023-01-23T10:06:54.350Z,23.20
2023-01-23T10:12:04.291Z,23.33
2023-01-23T10:17:15.932Z,22.70
2023-01-23T10:22:31.634Z,24.53
2023-01-23T10:27:35.847Z,23.67
2023-01-23T10:32:46.889Z,22.30
2023-01-23T10:37:54.139Z,21.23
2023-01-23T10:43:02.372Z,25.20
2023-01-23T10:48:30.212Z,21.63
2023-01-23T10:53:32.416Z,20.87
2023-01-23T10:58:39.691Z,22.53
2023-01-23T11:03:46.164Z,24.83
2023-01-23T11:08:55.525Z,22.97
2023-01-23T11:14:07.928Z,21.30
2023-01-23T11:19:18.711Z,24.77
2023-01-23T11:24:39.296Z,24.87
2023-01-23T11:30:03.331Z,24.87
2023-01-23T11:35:15.057Z,20.57
2023-01-23T11:40:20.408Z,23.87
2023-01-23T11:45:39.073Z,19.53
2023-01-23T11:50:55.350Z,17.50
2023-01-23T11:56:23.999Z,20.57
2023-01-23T12:01:31.440Z,22.77
2023-01-23T12:06:44.715Z,18.80
2023-01-23T12:12:04.632Z,21.13
2023-01-23T12:17:22.315Z,16.90
2023-01-23T12:22:35.724Z,18.47
2023-01-23T12:27:42.711Z,17.30
2023-01-23T12:33:00.903Z,17.40
2023-01-23T12:38:24.303Z,20.17
2023-01-23T12:43:36.796Z,18.00
2023-01-23T12:48:45.877Z,18.93
2023-01-23T12:53:55.321Z,18.53
2023-01-23T12:59:06.409Z,17.90
2023-01-23T13:04:22.202Z,20.50
2023-01-23T13:09:34.917Z,19.63
2023-01-23T13:15:00.716Z,19.23
2023-01-23T13:20:24.037Z,16.40
2023-01-23T13:25:27.741Z,22.63
2023-01-23T13:30:43.305Z,21.50
2023-01-23T13:35:52.946Z,17.93
2023-01-23T13:41:30.100Z,17.27
2023-01-23T14:24:02.081Z,13.90
2023-01-23T14:29:20.444Z,11.23
2023-01-23T14:34:24.581Z,16.40
2023-01-23T14:39:28.897Z,11.93
2023-01-23T14:44:39.339Z,10.70
2023-01-23T14:49:41.694Z,12.00
2023-01-23T14:54:53.427Z,12.93
2023-01-23T14:59:59.023Z,10.50
2023-01-23T15:05:08.214Z,12.37
2023-01-23T15:10:15.027Z,11.33
2023-01-23T15:15:21.372Z,10.87
2023-01-23T15:20:32.626Z,12.23
2023-01-23T15:25:34.712Z,11.73
2023-01-23T15:30:46.276Z,10.80
2023-01-23T15:35:49.059Z,11.83
2023-01-23T15:40:51.319Z,8.93
2023-01-23T15:45:54.856Z,11.93
2023-01-23T15:50:57.028Z,15.20
2023-01-23T15:56:00.857Z,11.03
2023-01-23T16:01:05.050Z,9.83
2023-01-23T16:06:11.561Z,8.63
2023-01-23T16:11:13.824Z,11.47
2023-01-23T16:16:18.887Z,10.50
2023-01-23T16:21:27.627Z,12.43
2023-01-23T16:26:30.370Z,8.97
2023-01-23T16:31:36.540Z,10.83
2023-01-23T16:36:39.709Z,9.00
2023-01-23T16:41:41.635Z,10.03
2023-01-23T16:46:45.769Z,9.97
2023-01-23T16:51:56.585Z,7.97
2023-01-23T16:56:58.963Z,11.03
2023-01-23T17:02:08.184Z,11.37
2023-01-23T17:07:13.816Z,9.27
2023-01-23T17:12:18.611Z,13.63
2023-01-23T17:17:28.049Z,10.77
2023-01-23T17:22:34.245Z,13.73
2023-01-23T17:27:44.810Z,10.47
2023-01-23T17:32:52.247Z,12.40
2023-01-23T17:37:54.855Z,12.40
2023-01-23T17:42:56.905Z,10.37
2023-01-23T17:48:00.383Z,10.33
2023-01-23T17:53:02.511Z,9.27
2023-01-23T17:58:04.255Z,9.40
2023-01-23T18:03:11.817Z,11.60
2023-01-23T18:08:15.344Z,9.63
2023-01-23T18:13:20.308Z,10.67
2023-01-23T18:18:29.448Z,12.30
2023-01-23T18:23:32.554Z,12.40
2023-01-23T18:28:42.592Z,10.10
2023-01-23T18:34:04.579Z,10.33
2023-01-23T18:39:22.283Z,12.00
2023-01-23T18:44:26.184Z,11.13
2023-01-23T18:49:32.874Z,14.37
2023-01-23T18:54:43.109Z,10.00
2023-01-23T18:59:49.537Z,9.30
2023-01-23T19:04:58.315Z,10.93
2023-01-23T19:10:00.425Z,9.37
2023-01-23T19:15:10.983Z,11.43
2023-01-23T19:20:23.711Z,9.83
2023-01-23T19:25:25.880Z,12.37
2023-01-23T19:30:28.534Z,12.27
2023-01-23T19:35:32.121Z,11.53
2023-01-23T19:40:35.002Z,12.73
2023-01-23T19:45:37.359Z,10.07
2023-01-23T19:50:40.725Z,10.00
2023-01-23T19:55:43.054Z,11.70
2023-01-23T20:00:45.064Z,8.83
2023-01-23T20:05:48.178Z,9.43
2023-01-23T20:10:50.355Z,10.10
2023-01-23T20:15:52.178Z,9.20
2023-01-23T20:20:59.587Z,10.37
2023-01-23T20:26:02.511Z,8.57
2023-01-23T20:31:06.740Z,10.07
2023-01-23T20:36:10.999Z,10.70
2023-01-23T20:41:15.087Z,11.20
2023-01-23T20:46:17.112Z,9.83
2023-01-23T20:51:20.287Z,9.93
2023-01-23T20:56:22.195Z,11.57
2023-01-23T21:01:27.566Z,10.80
2023-01-23T21:06:31.018Z,6.83
2023-01-23T21:11:32.852Z,9.77
2023-01-23T21:16:35.500Z,10.87
2023-01-23T21:21:38.786Z,11.33
2023-01-23T21:26:40.721Z,10.83
2023-01-23T21:31:43.376Z,8.47
2023-01-23T21:36:47.124Z,11.03
2023-01-23T21:41:48.994Z,8.30
2023-01-23T21:46:50.687Z,10.27
2023-01-23T21:51:54.229Z,7.97
2023-01-23T21:56:55.991Z,7.20
2023-01-23T22:01:58.053Z,12.23
2023-01-23T22:07:01.616Z,9.30
2023-01-23T22:12:03.557Z,9.10
2023-01-23T22:17:05.688Z,12.10
2023-01-23T22:22:09.611Z,9.83
2023-01-23T22:27:11.365Z,12.53
2023-01-23T22:32:13.824Z,6.70
2023-01-23T22:37:17.716Z,9.17
2023-01-23T22:42:19.845Z,11.17
2023-01-23T22:47:22.001Z,11.07
2023-01-23T22:52:25.192Z,7.60
2023-01-23T22:57:26.869Z,9.97
2023-01-23T23:02:29.065Z,11.63
2023-01-23T23:07:32.633Z,9.07
2023-01-23T23:12:35.023Z,9.87
2023-01-23T23:17:36.784Z,8.03
2023-01-23T23:22:42.423Z,13.13
2023-01-23T23:27:44.132Z,9.13
2023-01-23T23:32:46.125Z,10.77
2023-01-23T23:37:49.452Z,10.43
2023-01-23T23:42:51.642Z,11.37
2023-01-23T23:47:53.857Z,11.07
2023-01-23T23:52:57.169Z,10.03
2023-01-23T23:57:59.328Z,8.90
